Eaglesham, United Kingdom
Current Conditions -  °F | °C
As of 5:50 AM on Friday 28 Nov 2014 (Local Time) from EGPF Reporting Station
Moderate Fog Moderate Fog  
Wind Chill: 36°   Ceiling: Unl
Heat Index: 36°   Visibility: 0.18mi
Dew Point: 36°   Wind: 3mph
Humidity: 100%   Direction: 200°SSW
Pressure: 29.71"   Gusts: NA
Location:  55.74°N, 4.27°W
Report Text: EGPF 280550Z 20003KT 0300 R23/0450 FG VV/// 02/02 Q1006
Loading
Personal Weather Stations






























Interactive Weather Map New forecast layout! Learn more

10-Day Weather Forecast

Advertisements
Track Severe Weather on mobile